| time (UTC) | temp C | wind direction | speed KPH | gust KPH | rain 1hr cm | rain 24hr cm | rain mn cm | humidity % | barometer mb |
| 20260510010045 | 10 | 0 | 0.0 | 0.0 | 0.00 | 1.04 | 1.04 | 90 | 1009.8 |
| 20260510004545 | 10 | 0 | 0.0 | 4.8 | 0.00 | 1.04 | 1.04 | 89 | 1009.8 |
| 20260510003051 | 10 | 0 | 0.0 | 3.2 | 0.00 | 1.04 | 1.04 | 89 | 1009.6 |
| 20260510001550 | 11 | 0 | 0.0 | 0.0 | 0.00 | 1.04 | 1.04 | 88 | 1009.6 |
| 20260510000048 | 11 | 0 | 0.0 | 0.0 | 0.00 | 1.04 | 1.04 | 85 | 1009.6 |
| 20260509234559 | 11 | 0 | 0.0 | 0.0 | 0.00 | 1.04 | 1.04 | 82 | 1009.5 |
| 20260509233053 | 12 | 0 | 1.6 | 8.0 | 0.00 | 1.04 | 1.04 | 81 | 1009.4 |
| 20260509231605 | 12 | 200 | 0.0 | 6.4 | 0.00 | 1.04 | 1.04 | 81 | 1009.3 |
| 20260509230054 | 12 | 258 | 3.2 | 8.0 | 0.00 | 1.04 | 1.04 | 81 | 1009.1 |
| 20260509224548 | 12 | 207 | 1.6 | 6.4 | 0.00 | 1.04 | 1.04 | 83 | 1009.1 |
| 20260509223047 | 12 | 220 | 1.6 | 9.7 | 0.00 | 1.04 | 1.04 | 83 | 1009.4 |
| 20260509221542 | 12 | 0 | 1.6 | 6.4 | 0.00 | 1.04 | 1.04 | 85 | 1009.3 |
| 20260509220047 | 12 | 250 | 3.2 | 6.4 | 0.00 | 1.04 | 1.04 | 87 | 1009.3 |
| 20260509214548 | 11 | 0 | 3.2 | 6.4 | 0.03 | 1.04 | 1.04 | 88 | 1009.4 |
| 20260509213049 | 11 | 238 | 1.6 | 6.4 | 0.03 | 1.04 | 1.04 | 89 | 1009.4 |
| 20260509211552 | 11 | 222 | 1.6 | 8.0 | 0.03 | 1.04 | 1.04 | 89 | 1009.6 |
| 20260509210058 | 11 | 232 | 1.6 | 8.0 | 0.03 | 1.04 | 1.04 | 90 | 1009.6 |
| 20260509204549 | 11 | 176 | 4.8 | 14.5 | 0.00 | 1.04 | 1.02 | 91 | 1009.8 |
| 20260509203046 | 11 | 245 | 0.0 | 9.7 | 0.00 | 1.04 | 1.02 | 92 | 1009.8 |
| 20260509201556 | 10 | 281 | 3.2 | 8.0 | 0.03 | 1.04 | 1.02 | 93 | 1009.9 |
| 20260509200054 | 10 | 211 | 0.0 | 4.8 | 0.05 | 1.04 | 1.02 | 93 | 1009.9 |
| 20260509194547 | 10 | 211 | 1.6 | 4.8 | 0.10 | 1.04 | 1.02 | 93 | 1010.0 |
| 20260509193047 | 10 | 257 | 1.6 | 6.4 | 0.18 | 1.04 | 1.02 | 93 | 1010.1 |
| 20260509191546 | 10 | 212 | 1.6 | 6.4 | 0.20 | 1.02 | 0.99 | 93 | 1010.4 |
| 20260509190039 | 9 | 212 | 3.2 | 8.0 | 0.23 | 0.99 | 0.97 | 92 | 1010.7 |
| 20260509184552 | 9 | 227 | 4.8 | 11.3 | 0.30 | 0.94 | 0.91 | 92 | 1010.9 |
| 20260509183041 | 9 | 253 | 4.8 | 12.9 | 0.30 | 0.86 | 0.84 | 91 | 1011.1 |
| 20260509181549 | 9 | 209 | 4.8 | 19.3 | 0.30 | 0.81 | 0.79 | 91 | 1010.9 |
| 20260509180054 | 9 | 225 | 8.0 | 14.5 | 0.30 | 0.76 | 0.74 | 92 | 1010.9 |
| 20260509174548 | 9 | 205 | 1.6 | 8.0 | 0.28 | 0.64 | 0.61 | 93 | 1011.1 |
| 20260509173057 | 9 | 202 | 3.2 | 9.7 | 0.25 | 0.56 | 0.53 | 93 | 1011.1 |
| 20260509171549 | 9 | 196 | 3.2 | 8.0 | 0.25 | 0.51 | 0.48 | 93 | 1011.1 |
| 20260509170059 | 9 | 173 | 3.2 | 6.4 | 0.25 | 0.46 | 0.43 | 93 | 1011.2 |
| 20260509164547 | 9 | 205 | 3.2 | 8.0 | 0.15 | 0.36 | 0.33 | 92 | 1011.1 |
| 20260509163059 | 9 | 190 | 1.6 | 8.0 | 0.13 | 0.30 | 0.28 | 92 | 1011.2 |
| 20260509161550 | 9 | 211 | 3.2 | 8.0 | 0.08 | 0.25 | 0.23 | 91 | 1011.5 |
| 20260509160047 | 9 | 213 | 1.6 | 8.0 | 0.03 | 0.20 | 0.18 | 92 | 1011.5 |
| 20260509154543 | 9 | 178 | 1.6 | 8.0 | 0.05 | 0.20 | 0.18 | 91 | 1011.4 |
| 20260509153046 | 9 | 200 | 3.2 | 8.0 | 0.03 | 0.18 | 0.15 | 91 | 1011.5 |
| 20260509151548 | 9 | 185 | 1.6 | 6.4 | 0.05 | 0.18 | 0.15 | 91 | 1011.5 |
| 20260509150050 | 9 | 200 | 0.0 | 3.2 | 0.05 | 0.18 | 0.15 | 91 | 1011.4 |
| 20260509144547 | 9 | 0 | 0.0 | 0.0 | 0.05 | 0.15 | 0.13 | 91 | 1011.4 |
| 20260509143047 | 9 | 0 | 0.0 | 3.2 | 0.08 | 0.15 | 0.13 | 90 | 1011.1 |
| 20260509141546 | 9 | 164 | 0.0 | 8.0 | 0.08 | 0.13 | 0.10 | 89 | 1011.1 |
| 20260509140045 | 9 | 201 | 3.2 | 6.4 | 0.08 | 0.13 | 0.10 | 88 | 1011.6 |
| 20260509134549 | 9 | 210 | 0.0 | 6.4 | 0.05 | 0.10 | 0.08 | 87 | 1011.5 |
| 20260509133047 | 9 | 0 | 0.0 | 1.6 | 0.03 | 0.08 | 0.05 | 86 | 1011.2 |
| 20260509131549 | 9 | 0 | 0.0 | 4.8 | 0.00 | 0.05 | 0.03 | 85 | 1011.0 |
| 20260509130053 | 9 | 0 | 0.0 | 6.4 | 0.00 | 0.05 | 0.03 | 83 | 1011.1 |
| 20260509124554 | 9 | 176 | 0.0 | 8.0 | 0.00 | 0.05 | 0.03 | 82 | 1011.1 |
| 20260509123044 | 9 | 140 | 1.6 | 6.4 | 0.00 | 0.05 | 0.03 | 83 | 1010.9 |
| 20260509121557 | 9 | 119 | 0.0 | 6.4 | 0.00 | 0.05 | 0.03 | 83 | 1011.1 |
| 20260509120043 | 8 | 0 | 0.0 | 3.2 | 0.00 | 0.05 | 0.03 | 85 | 1011.3 |
| 20260509114554 | 8 | 121 | 0.0 | 3.2 | 0.00 | 0.05 | 0.03 | 86 | 1011.1 |
| 20260509113047 | 8 | 0 | 0.0 | 0.0 | 0.03 | 0.05 | 0.03 | 86 | 1011.1 |
| 20260509111542 | 8 | 0 | 0.0 | 0.0 | 0.03 | 0.05 | 0.03 | 86 | 1011.3 |
| 20260509110043 | 8 | 0 | 0.0 | 0.0 | 0.03 | 0.05 | 0.03 | 85 | 1011.2 |
| 20260509104537 | 8 | 0 | 0.0 | 3.2 | 0.03 | 0.05 | 0.03 | 84 | 1011.0 |
| 20260509103048 | 8 | 0 | 0.0 | 3.2 | 0.00 | 0.03 | 0.00 | 83 | 1011.1 |
| 20260509101545 | 8 | 121 | 0.0 | 3.2 | 0.00 | 0.03 | 0.00 | 83 | 1011.1 |
| 20260509100044 | 8 | 224 | 0.0 | 3.2 | 0.00 | 0.03 | 0.00 | 83 | 1010.9 |
| 20260509094550 | 8 | 0 | 0.0 | 6.4 | 0.00 | 0.05 | 0.00 | 84 | 1010.8 |
| 20260509093048 | 8 | 0 | 0.0 | 0.0 | 0.00 | 0.05 | 0.00 | 86 | 1010.9 |
| 20260509091552 | 8 | 144 | 0.0 | 4.8 | 0.00 | 0.05 | 0.00 | 85 | 1011.0 |
| 20260509090100 | 8 | 0 | 0.0 | 0.0 | 0.00 | 0.05 | 0.00 | 85 | 1011.2 |
| 20260509084547 | 8 | 0 | 0.0 | 0.0 | 0.00 | 0.05 | 0.00 | 85 | 1011.3 |
| 20260509083047 | 8 | 0 | 0.0 | 0.0 | 0.00 | 0.05 | 0.00 | 86 | 1011.6 |
| 20260509081547 | 8 | 0 | 0.0 | 0.0 | 0.00 | 0.05 | 0.00 | 87 | 1011.7 |
| 20260509080059 | 8 | 0 | 0.0 | 0.0 | 0.00 | 0.05 | 0.00 | 87 | 1012.0 |
| 20260509074545 | 8 | 0 | 0.0 | 0.0 | 0.00 | 0.05 | 0.00 | 88 | 1011.9 |
| 20260509073100 | 8 | 0 | 0.0 | 0.0 | 0.00 | 0.05 | 0.00 | 88 | 1011.9 |
| 20260509071542 | 8 | 0 | 0.0 | 0.0 | 0.00 | 0.05 | 0.00 | 88 | 1012.0 |
| 20260509070049 | 8 | 0 | 0.0 | 0.0 | 0.00 | 0.05 | 0.00 | 88 | 1012.0 |
| 20260509064546 | 8 | 0 | 0.0 | 0.0 | 0.00 | 0.05 | 0.00 | 87 | 1011.7 |
| 20260509063047 | 8 | 0 | 0.0 | 4.8 | 0.00 | 0.05 | 0.00 | 86 | 1011.9 |
| 20260509061544 | 8 | 323 | 1.6 | 6.4 | 0.00 | 0.05 | 0.00 | 86 | 1012.2 |
| 20260509060043 | 8 | 348 | 4.8 | 9.7 | 0.00 | 0.05 | 0.00 | 86 | 1012.2 |
| 20260509054539 | 8 | 0 | 0.0 | 0.0 | 0.00 | 0.10 | 0.00 | 84 | 1012.5 |
| 20260509053052 | 8 | 0 | 0.0 | 4.8 | 0.00 | 0.10 | 0.00 | 84 | 1012.8 |
| 20260509051547 | 8 | 0 | 0.0 | 3.2 | 0.00 | 0.10 | 0.00 | 86 | 1012.8 |
| 20260509050057 | 8 | 0 | 0.0 | 0.0 | 0.00 | 0.10 | 0.00 | 86 | 1012.6 |
| 20260509044540 | 8 | 0 | 0.0 | 4.8 | 0.00 | 0.10 | 0.00 | 84 | 1012.7 |
| 20260509043048 | 9 | 259 | 0.0 | 6.4 | 0.00 | 0.10 | 0.00 | 81 | 1012.3 |
| 20260509041550 | 9 | 0 | 0.0 | 4.8 | 0.00 | 0.10 | 0.00 | 82 | 1012.3 |
| 20260509040047 | 8 | 0 | 0.0 | 1.6 | 0.00 | 0.10 | 0.00 | 85 | 1012.4 |
| 20260509034539 | 8 | 0 | 0.0 | 1.6 | 0.00 | 0.10 | 0.10 | 87 | 1012.6 |
| 20260509033103 | 8 | 0 | 0.0 | 0.0 | 0.00 | 0.10 | 0.10 | 86 | 1012.6 |
| 20260509031549 | 8 | 0 | 0.0 | 0.0 | 0.00 | 0.10 | 0.10 | 86 | 1012.8 |
| 20260509030050 | 8 | 0 | 0.0 | 0.0 | 0.00 | 0.10 | 0.10 | 85 | 1013.1 |
| 20260509024542 | 8 | 0 | 0.0 | 0.0 | 0.00 | 0.10 | 0.10 | 85 | 1013.0 |
| 20260509023048 | 8 | 0 | 0.0 | 0.0 | 0.00 | 0.10 | 0.10 | 84 | 1012.6 |
| 20260509021547 | 8 | 0 | 0.0 | 0.0 | 0.00 | 0.10 | 0.10 | 84 | 1012.8 |
| 20260509020053 | 8 | 0 | 0.0 | 0.0 | 0.00 | 0.10 | 0.10 | 83 | 1012.8 |
| 20260509014543 | 9 | 0 | 0.0 | 0.0 | 0.00 | 0.10 | 0.10 | 80 | 1012.5 |
| 20260509013050 | 10 | 0 | 0.0 | 0.0 | 0.00 | 0.10 | 0.10 | 78 | 1012.5 |
| 20260509011602 | 10 | 0 | 0.0 | 0.0 | 0.00 | 0.10 | 0.10 | 78 | 1012.3 |